Time,TemperatureF,DewpointF,PressureIn,WindDirection,WindDirectionDegrees,WindSpeedMPH,WindSpeedGustMPH,Humidity,HourlyPrecipIn,Conditions,Clouds,dailyrainin,SoftwareType,DateUTC
2013-01-05 00:05:00,35.6,19.0,30.15,WNW,283,5.0,-999.0,52,-99.99,,,0.00,weatherlink.com 1.10,2013-01-05 05:05:00,
2013-01-05 00:20:00,35.5,19.0,30.15,WNW,285,5.0,-999.0,52,-99.99,,,0.00,weatherlink.com 1.10,2013-01-05 05:20:00,
2013-01-05 00:35:00,35.0,19.0,30.15,WNW,290,3.0,-999.0,53,-99.99,,,0.00,weatherlink.com 1.10,2013-01-05 05:35:00,
2013-01-05 00:50:00,34.9,19.0,30.15,West,278,0.0,-999.0,53,-99.99,,,0.00,weatherlink.com 1.10,2013-01-05 05:50:00,
2013-01-05 01:05:00,35.3,19.0,30.15,West,268,2.0,-999.0,52,-99.99,,,0.00,weatherlink.com 1.10,2013-01-05 06:05:00,
2013-01-05 01:20:00,35.0,19.0,30.14,West,265,0.0,-999.0,53,-99.99,,,0.00,weatherlink.com 1.10,2013-01-05 06:20:00,
2013-01-05 01:35:00,33.8,19.0,30.14,West,271,6.0,-999.0,55,-99.99,,,0.00,weatherlink.com 1.10,2013-01-05 06:35:00,
2013-01-05 01:50:00,34.4,19.0,30.15,SW,234,0.0,-999.0,54,-99.99,,,0.00,weatherlink.com 1.10,2013-01-05 06:50:00,
2013-01-05 02:05:00,34.7,19.0,30.16,West,281,2.0,-999.0,53,-99.99,,,0.00,weatherlink.com 1.10,2013-01-05 07:05:00,
2013-01-05 02:20:00,34.7,19.0,30.16,West,263,0.0,-999.0,52,-99.99,,,0.00,weatherlink.com 1.10,2013-01-05 07:20:00,
2013-01-05 02:35:00,34.7,19.0,30.18,WNW,284,0.0,-999.0,52,-99.99,,,0.00,weatherlink.com 1.10,2013-01-05 07:35:00,
2013-01-05 02:50:00,34.6,19.0,30.18,West,259,0.0,-999.0,53,-99.99,,,0.00,weatherlink.com 1.10,2013-01-05 07:50:00,
2013-01-05 03:05:00,34.3,19.0,30.19,West,259,0.0,-999.0,54,-99.99,,,0.00,weatherlink.com 1.10,2013-01-05 08:05:00,
2013-01-05 03:20:00,34.6,19.0,30.20,SW,224,3.0,-999.0,53,-99.99,,,0.00,weatherlink.com 1.10,2013-01-05 08:20:00,
2013-01-05 03:35:00,34.6,19.0,30.21,WSW,258,1.0,-999.0,53,-99.99,,,0.00,weatherlink.com 1.10,2013-01-05 08:35:00,
2013-01-05 03:50:00,34.4,19.0,30.21,WSW,250,1.0,-999.0,54,-99.99,,,0.00,weatherlink.com 1.10,2013-01-05 08:50:00,
2013-01-05 04:05:00,33.5,19.0,30.22,WSW,250,0.0,-999.0,55,-99.99,,,0.00,weatherlink.com 1.10,2013-01-05 09:05:00,
2013-01-05 04:20:00,32.7,19.0,30.22,WSW,257,0.0,-999.0,57,-99.99,,,0.00,weatherlink.com 1.10,2013-01-05 09:20:00,
2013-01-05 04:35:00,33.7,19.0,30.23,West,278,2.0,-999.0,56,-99.99,,,0.00,weatherlink.com 1.10,2013-01-05 09:35:00,
2013-01-05 04:50:00,34.1,20.0,30.24,WNW,287,0.0,-999.0,56,-99.99,,,0.00,weatherlink.com 1.10,2013-01-05 09:50:00,
2013-01-05 05:05:00,33.7,19.0,30.24,WNW,287,0.0,-999.0,56,-99.99,,,0.00,weatherlink.com 1.10,2013-01-05 10:05:00,
2013-01-05 05:20:00,33.8,20.0,30.24,WNW,287,0.0,-999.0,57,-99.99,,,0.00,weatherlink.com 1.10,2013-01-05 10:20:00,
2013-01-05 05:35:00,32.9,19.0,30.25,West,278,0.0,-999.0,58,-99.99,,,0.00,weatherlink.com 1.10,2013-01-05 10:35:00,
2013-01-05 05:50:00,32.4,20.0,30.27,West,278,0.0,-999.0,60,-99.99,,,0.00,weatherlink.com 1.10,2013-01-05 10:50:00,
2013-01-05 06:05:00,30.7,19.0,30.27,West,278,0.0,-999.0,62,-99.99,,,0.00,weatherlink.com 1.10,2013-01-05 11:05:00,
2013-01-05 06:20:00,31.8,20.0,30.29,WNW,291,0.0,-999.0,63,-99.99,,,0.00,weatherlink.com 1.10,2013-01-05 11:20:00,
2013-01-05 06:35:00,32.4,20.0,30.29,WNW,291,0.0,-999.0,61,-99.99,,,0.00,weatherlink.com 1.10,2013-01-05 11:35:00,
2013-01-05 06:50:00,31.6,20.0,30.30,WNW,291,0.0,-999.0,62,-99.99,,,0.00,weatherlink.com 1.10,2013-01-05 11:50:00,
2013-01-05 07:05:00,31.5,20.0,30.31,WNW,291,0.0,-999.0,63,-99.99,,,0.00,weatherlink.com 1.10,2013-01-05 12:05:00,
2013-01-05 07:20:00,30.1,20.0,30.32,WNW,291,0.0,-999.0,65,-99.99,,,0.00,weatherlink.com 1.10,2013-01-05 12:20:00,
2013-01-05 07:35:00,30.9,21.0,30.32,WNW,291,0.0,-999.0,66,-99.99,,,0.00,weatherlink.com 1.10,2013-01-05 12:35:00,
2013-01-05 07:50:00,29.0,19.0,30.33,WNW,298,0.0,-999.0,67,-99.99,,,0.00,weatherlink.com 1.10,2013-01-05 12:50:00,
2013-01-05 08:05:00,31.3,21.0,30.33,NNW,329,0.0,-999.0,65,-99.99,,,0.00,weatherlink.com 1.10,2013-01-05 13:05:00,
2013-01-05 08:20:00,32.9,21.0,30.33,WNW,283,0.0,-999.0,61,-99.99,,,0.00,weatherlink.com 1.10,2013-01-05 13:20:00,
2013-01-05 08:35:00,33.8,21.0,30.34,WNW,297,0.0,-999.0,60,-99.99,,,0.00,weatherlink.com 1.10,2013-01-05 13:35:00,
2013-01-05 08:50:00,34.4,22.0,30.35,NW,321,3.0,-999.0,60,-99.99,,,0.00,weatherlink.com 1.10,2013-01-05 13:50:00,
2013-01-05 09:05:00,35.3,22.0,30.36,NW,316,3.0,-999.0,58,-99.99,,,0.00,weatherlink.com 1.10,2013-01-05 14:05:00,
2013-01-05 09:20:00,35.8,22.0,30.36,NW,304,1.0,-999.0,57,-99.99,,,0.00,weatherlink.com 1.10,2013-01-05 14:20:00,
2013-01-05 09:35:00,36.5,22.0,30.37,NNW,342,3.0,-999.0,56,-99.99,,,0.00,weatherlink.com 1.10,2013-01-05 14:35:00,
2013-01-05 09:50:00,36.8,22.0,30.38,NNW,342,2.0,-999.0,55,-99.99,,,0.00,weatherlink.com 1.10,2013-01-05 14:50:00,
2013-01-05 10:05:00,36.9,21.0,30.37,NW,326,5.0,-999.0,54,-99.99,,,0.00,weatherlink.com 1.10,2013-01-05 15:05:00,
2013-01-05 10:20:00,37.5,22.0,30.38,WSW,248,2.0,-999.0,54,-99.99,,,0.00,weatherlink.com 1.10,2013-01-05 15:20:00,
2013-01-05 10:35:00,37.9,22.0,30.38,NW,317,1.0,-999.0,53,-99.99,,,0.00,weatherlink.com 1.10,2013-01-05 15:35:00,
2013-01-05 10:50:00,38.2,22.0,30.37,NW,323,0.0,-999.0,52,-99.99,,,0.00,weatherlink.com 1.10,2013-01-05 15:50:00,
2013-01-05 11:05:00,38.8,22.0,30.38,West,277,0.0,-999.0,51,-99.99,,,0.00,weatherlink.com 1.10,2013-01-05 16:05:00,
2013-01-05 11:20:00,38.9,22.0,30.38,NNW,348,0.0,-999.0,51,-99.99,,,0.00,weatherlink.com 1.10,2013-01-05 16:20:00,
2013-01-05 11:35:00,39.3,22.0,30.37,WNW,288,1.0,-999.0,51,-99.99,,,0.00,weatherlink.com 1.10,2013-01-05 16:35:00,
2013-01-05 11:50:00,39.8,22.0,30.36,NNW,345,0.0,-999.0,50,-99.99,,,0.00,weatherlink.com 1.10,2013-01-05 16:50:00,
2013-01-05 12:05:00,40.8,23.0,30.36,NNW,338,5.0,-999.0,50,-99.99,,,0.00,weatherlink.com 1.10,2013-01-05 17:05:00,
2013-01-05 12:20:00,41.3,23.0,30.35,West,264,7.0,-999.0,48,-99.99,,,0.00,weatherlink.com 1.10,2013-01-05 17:20:00,
2013-01-05 12:35:00,42.3,24.0,30.33,NW,315,1.0,-999.0,48,-99.99,,,0.00,weatherlink.com 1.10,2013-01-05 17:35:00,
2013-01-05 12:50:00,42.3,23.0,30.32,NNW,328,2.0,-999.0,47,-99.99,,,0.00,weatherlink.com 1.10,2013-01-05 17:50:00,
2013-01-05 13:05:00,42.6,22.0,30.32,NNW,330,1.0,-999.0,45,-99.99,,,0.00,weatherlink.com 1.10,2013-01-05 18:05:00,
2013-01-05 13:20:00,42.8,23.0,30.31,NW,310,6.0,-999.0,46,-99.99,,,0.00,weatherlink.com 1.10,2013-01-05 18:20:00,
2013-01-05 13:35:00,42.5,23.0,30.30,WNW,288,1.0,-999.0,46,-99.99,,,0.00,weatherlink.com 1.10,2013-01-05 18:35:00,
2013-01-05 13:50:00,42.5,23.0,30.30,NNW,336,3.0,-999.0,46,-99.99,,,0.00,weatherlink.com 1.10,2013-01-05 18:50:00,
2013-01-05 14:05:00,43.1,22.0,30.30,WNW,288,4.0,-999.0,44,-99.99,,,0.00,weatherlink.com 1.10,2013-01-05 19:05:00,
2013-01-05 14:20:00,42.9,25.0,30.30,NNW,330,2.0,-999.0,49,-99.99,,,0.00,weatherlink.com 1.10,2013-01-05 19:20:00,
2013-01-05 14:35:00,43.3,23.0,30.29,WSW,238,5.0,-999.0,45,-99.99,,,0.00,weatherlink.com 1.10,2013-01-05 19:35:00,
2013-01-05 14:50:00,43.1,23.0,30.30,West,272,3.0,-999.0,45,-99.99,,,0.00,weatherlink.com 1.10,2013-01-05 19:50:00,
2013-01-05 15:05:00,42.9,23.0,30.30,WNW,286,0.0,-999.0,45,-99.99,,,0.00,weatherlink.com 1.10,2013-01-05 20:05:00,
2013-01-05 15:20:00,43.1,23.0,30.30,SW,235,0.0,-999.0,46,-99.99,,,0.00,weatherlink.com 1.10,2013-01-05 20:20:00,
2013-01-05 15:35:00,40.8,26.0,30.30,SE,137,3.0,-999.0,56,-99.99,,,0.00,weatherlink.com 1.10,2013-01-05 20:35:00,
2013-01-05 15:50:00,40.6,26.0,30.31,SE,139,5.0,-999.0,56,-99.99,,,0.00,weatherlink.com 1.10,2013-01-05 20:50:00,
2013-01-05 16:05:00,40.3,26.0,30.30,SSE,149,3.0,-999.0,57,-99.99,,,0.00,weatherlink.com 1.10,2013-01-05 21:05:00,
2013-01-05 16:20:00,39.8,26.0,30.30,SSE,149,0.0,-999.0,59,-99.99,,,0.00,weatherlink.com 1.10,2013-01-05 21:20:00,
2013-01-05 16:35:00,39.2,26.0,30.30,SE,134,2.0,-999.0,59,-99.99,,,0.00,weatherlink.com 1.10,2013-01-05 21:35:00,
2013-01-05 16:50:00,38.3,25.0,30.29,SE,131,0.0,-999.0,60,-99.99,,,0.00,weatherlink.com 1.10,2013-01-05 21:50:00,
2013-01-05 17:05:00,37.2,26.0,30.30,SE,131,0.0,-999.0,63,-99.99,,,0.00,weatherlink.com 1.10,2013-01-05 22:05:00,
2013-01-05 17:20:00,36.6,26.0,30.30,ESE,116,0.0,-999.0,65,-99.99,,,0.00,weatherlink.com 1.10,2013-01-05 22:20:00,
2013-01-05 17:35:00,35.8,26.0,30.30,ESE,116,0.0,-999.0,68,-99.99,,,0.00,weatherlink.com 1.10,2013-01-05 22:35:00,
2013-01-05 17:50:00,34.4,26.0,30.30,ESE,116,0.0,-999.0,71,-99.99,,,0.00,weatherlink.com 1.10,2013-01-05 22:50:00,
2013-01-05 18:05:00,34.0,26.0,30.29,ESE,116,0.0,-999.0,73,-99.99,,,0.00,weatherlink.com 1.10,2013-01-05 23:05:00,
2013-01-05 18:20:00,34.3,27.0,30.30,ESE,116,0.0,-999.0,74,-99.99,,,0.00,weatherlink.com 1.10,2013-01-05 23:20:00,
2013-01-05 18:35:00,34.3,27.0,30.30,ESE,116,2.0,-999.0,75,-99.99,,,0.00,weatherlink.com 1.10,2013-01-05 23:35:00,
2013-01-05 18:50:00,34.3,27.0,30.29,ESE,116,0.0,-999.0,74,-99.99,,,0.00,weatherlink.com 1.10,2013-01-05 23:50:00,
2013-01-05 19:05:00,34.7,28.0,30.29,ESE,116,0.0,-999.0,75,-99.99,,,0.00,weatherlink.com 1.10,2013-01-06 00:05:00,
2013-01-05 19:20:00,35.0,28.0,30.27,ESE,116,0.0,-999.0,75,-99.99,,,0.00,weatherlink.com 1.10,2013-01-06 00:20:00,
2013-01-05 19:35:00,35.2,28.0,30.28,ESE,116,0.0,-999.0,76,-99.99,,,0.00,weatherlink.com 1.10,2013-01-06 00:35:00,
2013-01-05 19:50:00,35.3,28.0,30.29,ESE,116,0.0,-999.0,76,-99.99,,,0.00,weatherlink.com 1.10,2013-01-06 00:50:00,
2013-01-05 20:05:00,35.2,29.0,30.26,ESE,116,0.0,-999.0,78,-99.99,,,0.00,weatherlink.com 1.10,2013-01-06 01:05:00,
2013-01-05 20:20:00,35.9,30.0,30.27,ESE,116,0.0,-999.0,78,-99.99,,,0.00,weatherlink.com 1.10,2013-01-06 01:20:00,
2013-01-05 20:35:00,36.2,30.0,30.26,ESE,116,0.0,-999.0,78,-99.99,,,0.00,weatherlink.com 1.10,2013-01-06 01:35:00,
2013-01-05 20:50:00,36.5,30.0,30.27,ESE,116,0.0,-999.0,78,-99.99,,,0.00,weatherlink.com 1.10,2013-01-06 01:50:00,
2013-01-05 21:05:00,36.5,30.0,30.27,ESE,116,0.0,-999.0,77,-99.99,,,0.00,weatherlink.com 1.10,2013-01-06 02:05:00,
2013-01-05 21:20:00,36.6,29.0,30.26,South,181,0.0,-999.0,73,-99.99,,,0.00,weatherlink.com 1.10,2013-01-06 02:20:00,
2013-01-05 21:35:00,36.8,27.0,30.25,SE,141,0.0,-999.0,69,-99.99,,,0.00,weatherlink.com 1.10,2013-01-06 02:35:00,
2013-01-05 21:50:00,36.8,27.0,30.24,SE,143,1.0,-999.0,68,-99.99,,,0.00,weatherlink.com 1.10,2013-01-06 02:50:00,
2013-01-05 22:05:00,36.8,27.0,30.24,SE,143,1.0,-999.0,67,-99.99,,,0.00,weatherlink.com 1.10,2013-01-06 03:05:00,
2013-01-05 22:20:00,36.8,27.0,30.24,SE,143,0.0,-999.0,68,-99.99,,,0.00,weatherlink.com 1.10,2013-01-06 03:20:00,
2013-01-05 22:38:00,37.2,27.0,30.25,SE,143,0.0,-999.0,67,-99.99,,,0.00,weatherlink.com 1.10,2013-01-06 03:38:00,
2013-01-05 22:50:00,37.2,28.0,30.25,SE,143,0.0,-999.0,69,-99.99,,,0.00,weatherlink.com 1.10,2013-01-06 03:50:00,
2013-01-05 23:05:00,37.8,28.0,30.25,SSW,198,10.0,-999.0,69,-99.99,,,0.00,weatherlink.com 1.10,2013-01-06 04:05:00,
2013-01-05 23:20:00,38.0,29.0,30.24,SSW,200,5.0,-999.0,69,-99.99,,,0.00,weatherlink.com 1.10,2013-01-06 04:20:00,
2013-01-05 23:35:00,38.3,29.0,30.23,SSW,192,1.0,-999.0,70,-99.99,,,0.00,weatherlink.com 1.10,2013-01-06 04:35:00,
2013-01-05 23:50:00,38.3,29.0,30.21,SSE,156,1.0,-999.0,70,-99.99,,,0.00,weatherlink.com 1.10,2013-01-06 04:50:00,